sensor_id;sensor_type;location;lat;lon;timestamp;temperature;humidity
12841;DHT22;6487;48.626;12.486;2023-06-04T00:00:09;14.90;81.60
12841;DHT22;6487;48.626;12.486;2023-06-04T00:02:38;14.80;81.30
12841;DHT22;6487;48.626;12.486;2023-06-04T00:05:08;14.70;80.90
12841;DHT22;6487;48.626;12.486;2023-06-04T00:07:37;14.60;81.20
12841;DHT22;6487;48.626;12.486;2023-06-04T00:10:06;14.60;81.80
12841;DHT22;6487;48.626;12.486;2023-06-04T00:12:35;14.50;81.30
12841;DHT22;6487;48.626;12.486;2023-06-04T00:15:04;14.50;81.70
12841;DHT22;6487;48.626;12.486;2023-06-04T00:17:33;14.50;81.00
12841;DHT22;6487;48.626;12.486;2023-06-04T00:20:01;14.40;81.70
12841;DHT22;6487;48.626;12.486;2023-06-04T00:22:31;14.50;81.80
12841;DHT22;6487;48.626;12.486;2023-06-04T00:25:00;14.40;82.00
12841;DHT22;6487;48.626;12.486;2023-06-04T00:27:28;14.40;82.10
12841;DHT22;6487;48.626;12.486;2023-06-04T00:29:57;14.40;82.80
12841;DHT22;6487;48.626;12.486;2023-06-04T00:32:25;14.20;81.00
12841;DHT22;6487;48.626;12.486;2023-06-04T00:34:54;14.20;81.70
12841;DHT22;6487;48.626;12.486;2023-06-04T00:37:32;14.10;81.90
12841;DHT22;6487;48.626;12.486;2023-06-04T00:40:01;14.20;82.90
12841;DHT22;6487;48.626;12.486;2023-06-04T00:42:33;14.20;83.70
12841;DHT22;6487;48.626;12.486;2023-06-04T00:45:02;14.10;83.80
12841;DHT22;6487;48.626;12.486;2023-06-04T00:47:30;14.00;83.70
12841;DHT22;6487;48.626;12.486;2023-06-04T00:49:59;14.00;83.50
12841;DHT22;6487;48.626;12.486;2023-06-04T00:52:27;14.00;84.80
12841;DHT22;6487;48.626;12.486;2023-06-04T00:54:58;13.90;85.30
12841;DHT22;6487;48.626;12.486;2023-06-04T00:57:27;13.90;85.40
12841;DHT22;6487;48.626;12.486;2023-06-04T00:59:56;13.90;85.80
12841;DHT22;6487;48.626;12.486;2023-06-04T01:02:25;13.90;86.00
12841;DHT22;6487;48.626;12.486;2023-06-04T01:05:01;13.80;86.00
12841;DHT22;6487;48.626;12.486;2023-06-04T01:07:35;13.70;86.10
12841;DHT22;6487;48.626;12.486;2023-06-04T01:10:09;13.70;86.70
12841;DHT22;6487;48.626;12.486;2023-06-04T01:12:39;13.70;86.40
12841;DHT22;6487;48.626;12.486;2023-06-04T01:15:09;13.50;86.10
12841;DHT22;6487;48.626;12.486;2023-06-04T01:17:41;13.50;86.10
12841;DHT22;6487;48.626;12.486;2023-06-04T01:20:22;13.50;86.30
12841;DHT22;6487;48.626;12.486;2023-06-04T01:23:14;13.50;87.00
12841;DHT22;6487;48.626;12.486;2023-06-04T01:25:49;13.60;86.60
12841;DHT22;6487;48.626;12.486;2023-06-04T01:28:19;13.50;86.70
12841;DHT22;6487;48.626;12.486;2023-06-04T01:30:48;13.40;86.90
12841;DHT22;6487;48.626;12.486;2023-06-04T01:33:23;13.40;86.60
12841;DHT22;6487;48.626;12.486;2023-06-04T01:35:52;13.30;86.70
12841;DHT22;6487;48.626;12.486;2023-06-04T01:38:20;13.30;87.10
12841;DHT22;6487;48.626;12.486;2023-06-04T01:40:50;13.30;87.10
12841;DHT22;6487;48.626;12.486;2023-06-04T01:43:23;13.20;87.60
12841;DHT22;6487;48.626;12.486;2023-06-04T01:45:51;13.10;87.80
12841;DHT22;6487;48.626;12.486;2023-06-04T01:48:21;13.20;87.60
12841;DHT22;6487;48.626;12.486;2023-06-04T01:50:49;13.20;87.80
12841;DHT22;6487;48.626;12.486;2023-06-04T01:53:18;13.20;87.70
12841;DHT22;6487;48.626;12.486;2023-06-04T01:55:46;13.20;87.80
12841;DHT22;6487;48.626;12.486;2023-06-04T01:58:17;13.10;87.60
12841;DHT22;6487;48.626;12.486;2023-06-04T02:00:49;13.00;87.60
12841;DHT22;6487;48.626;12.486;2023-06-04T02:03:19;13.00;87.60
12841;DHT22;6487;48.626;12.486;2023-06-04T02:05:49;12.90;87.20
12841;DHT22;6487;48.626;12.486;2023-06-04T02:08:17;12.90;86.50
12841;DHT22;6487;48.626;12.486;2023-06-04T02:10:47;12.80;87.50
12841;DHT22;6487;48.626;12.486;2023-06-04T02:13:17;12.90;87.90
12841;DHT22;6487;48.626;12.486;2023-06-04T02:15:46;12.80;88.50
12841;DHT22;6487;48.626;12.486;2023-06-04T02:18:18;12.70;89.90
12841;DHT22;6487;48.626;12.486;2023-06-04T02:20:48;12.60;89.30
12841;DHT22;6487;48.626;12.486;2023-06-04T02:23:19;12.50;90.00
12841;DHT22;6487;48.626;12.486;2023-06-04T02:25:48;12.60;90.00
12841;DHT22;6487;48.626;12.486;2023-06-04T02:28:18;12.60;90.00
12841;DHT22;6487;48.626;12.486;2023-06-04T02:30:47;12.60;90.20
12841;DHT22;6487;48.626;12.486;2023-06-04T02:33:15;12.50;90.30
12841;DHT22;6487;48.626;12.486;2023-06-04T02:35:44;12.50;90.20
12841;DHT22;6487;48.626;12.486;2023-06-04T02:38:12;12.50;90.70
12841;DHT22;6487;48.626;12.486;2023-06-04T02:40:44;12.40;90.90
12841;DHT22;6487;48.626;12.486;2023-06-04T02:43:12;12.40;90.40
12841;DHT22;6487;48.626;12.486;2023-06-04T02:45:42;12.40;90.50
12841;DHT22;6487;48.626;12.486;2023-06-04T02:48:10;12.40;90.60
12841;DHT22;6487;48.626;12.486;2023-06-04T02:50:39;12.40;90.70
12841;DHT22;6487;48.626;12.486;2023-06-04T02:53:11;12.30;90.90
12841;DHT22;6487;48.626;12.486;2023-06-04T02:55:40;12.30;91.10
12841;DHT22;6487;48.626;12.486;2023-06-04T02:58:12;12.30;91.20
12841;DHT22;6487;48.626;12.486;2023-06-04T03:00:42;12.20;91.30
12841;DHT22;6487;48.626;12.486;2023-06-04T03:03:10;12.20;91.30
12841;DHT22;6487;48.626;12.486;2023-06-04T03:05:39;12.20;91.30
12841;DHT22;6487;48.626;12.486;2023-06-04T03:08:10;12.20;91.50
12841;DHT22;6487;48.626;12.486;2023-06-04T03:10:39;12.20;91.50
12841;DHT22;6487;48.626;12.486;2023-06-04T03:13:07;12.10;91.70
12841;DHT22;6487;48.626;12.486;2023-06-04T03:15:35;12.00;91.70
12841;DHT22;6487;48.626;12.486;2023-06-04T03:18:07;11.90;91.60
12841;DHT22;6487;48.626;12.486;2023-06-04T03:20:36;11.80;91.90
12841;DHT22;6487;48.626;12.486;2023-06-04T03:23:05;11.80;92.00
12841;DHT22;6487;48.626;12.486;2023-06-04T03:25:34;11.70;92.50
12841;DHT22;6487;48.626;12.486;2023-06-04T03:28:05;11.70;92.80
12841;DHT22;6487;48.626;12.486;2023-06-04T03:30:33;11.50;92.80
12841;DHT22;6487;48.626;12.486;2023-06-04T03:33:02;11.50;92.90
12841;DHT22;6487;48.626;12.486;2023-06-04T03:35:32;11.60;93.00
12841;DHT22;6487;48.626;12.486;2023-06-04T03:38:00;11.70;92.90
12841;DHT22;6487;48.626;12.486;2023-06-04T03:40:29;11.50;92.80
12841;DHT22;6487;48.626;12.486;2023-06-04T03:42:57;11.50;93.00
12841;DHT22;6487;48.626;12.486;2023-06-04T03:45:27;11.60;92.70
12841;DHT22;6487;48.626;12.486;2023-06-04T03:47:55;11.70;92.70
12841;DHT22;6487;48.626;12.486;2023-06-04T03:50:24;11.70;92.30
12841;DHT22;6487;48.626;12.486;2023-06-04T03:52:53;11.70;92.90
12841;DHT22;6487;48.626;12.486;2023-06-04T03:55:22;11.80;92.80
12841;DHT22;6487;48.626;12.486;2023-06-04T03:57:51;11.90;92.80
12841;DHT22;6487;48.626;12.486;2023-06-04T04:00:19;11.90;92.70
12841;DHT22;6487;48.626;12.486;2023-06-04T04:02:48;11.90;92.60
12841;DHT22;6487;48.626;12.486;2023-06-04T04:05:17;11.90;92.70
12841;DHT22;6487;48.626;12.486;2023-06-04T04:07:45;12.00;92.90
12841;DHT22;6487;48.626;12.486;2023-06-04T04:10:15;12.00;92.90
12841;DHT22;6487;48.626;12.486;2023-06-04T04:12:43;12.00;93.00
12841;DHT22;6487;48.626;12.486;2023-06-04T04:15:12;12.00;93.10
12841;DHT22;6487;48.626;12.486;2023-06-04T04:17:41;12.00;93.30
12841;DHT22;6487;48.626;12.486;2023-06-04T04:20:10;12.00;93.00
12841;DHT22;6487;48.626;12.486;2023-06-04T04:22:40;12.00;93.10
12841;DHT22;6487;48.626;12.486;2023-06-04T04:25:09;12.00;93.30
12841;DHT22;6487;48.626;12.486;2023-06-04T04:27:39;12.10;93.20
12841;DHT22;6487;48.626;12.486;2023-06-04T04:30:08;12.10;93.10
12841;DHT22;6487;48.626;12.486;2023-06-04T04:32:41;12.10;92.80
12841;DHT22;6487;48.626;12.486;2023-06-04T04:35:15;12.00;92.70
12841;DHT22;6487;48.626;12.486;2023-06-04T04:37:45;12.00;93.00
12841;DHT22;6487;48.626;12.486;2023-06-04T04:40:13;11.90;93.30
12841;DHT22;6487;48.626;12.486;2023-06-04T04:42:43;12.00;93.20
12841;DHT22;6487;48.626;12.486;2023-06-04T04:45:12;12.10;93.30
12841;DHT22;6487;48.626;12.486;2023-06-04T04:47:40;12.20;92.90
12841;DHT22;6487;48.626;12.486;2023-06-04T04:50:09;12.20;93.10
12841;DHT22;6487;48.626;12.486;2023-06-04T04:52:41;12.30;93.10
12841;DHT22;6487;48.626;12.486;2023-06-04T04:55:10;12.30;92.70
12841;DHT22;6487;48.626;12.486;2023-06-04T04:57:42;12.40;92.10
12841;DHT22;6487;48.626;12.486;2023-06-04T05:00:11;12.40;92.00
12841;DHT22;6487;48.626;12.486;2023-06-04T05:02:41;12.50;91.70
12841;DHT22;6487;48.626;12.486;2023-06-04T05:05:10;12.60;91.50
12841;DHT22;6487;48.626;12.486;2023-06-04T05:07:39;12.70;91.30
12841;DHT22;6487;48.626;12.486;2023-06-04T05:10:08;12.70;91.70
12841;DHT22;6487;48.626;12.486;2023-06-04T05:12:39;12.80;91.80
12841;DHT22;6487;48.626;12.486;2023-06-04T05:15:10;12.80;91.90
12841;DHT22;6487;48.626;12.486;2023-06-04T05:17:39;12.90;91.50
12841;DHT22;6487;48.626;12.486;2023-06-04T05:20:11;13.00;91.50
12841;DHT22;6487;48.626;12.486;2023-06-04T05:22:42;13.10;90.90
12841;DHT22;6487;48.626;12.486;2023-06-04T05:25:12;13.10;90.60
12841;DHT22;6487;48.626;12.486;2023-06-04T05:27:40;13.30;90.90
12841;DHT22;6487;48.626;12.486;2023-06-04T05:30:11;13.40;90.60
12841;DHT22;6487;48.626;12.486;2023-06-04T05:32:43;13.40;90.20
12841;DHT22;6487;48.626;12.486;2023-06-04T05:35:12;13.50;90.00
12841;DHT22;6487;48.626;12.486;2023-06-04T05:37:40;13.60;89.80
12841;DHT22;6487;48.626;12.486;2023-06-04T05:40:12;13.70;89.20
12841;DHT22;6487;48.626;12.486;2023-06-04T05:42:43;13.90;89.10
12841;DHT22;6487;48.626;12.486;2023-06-04T05:45:12;14.00;89.00
12841;DHT22;6487;48.626;12.486;2023-06-04T05:47:41;14.00;87.10
12841;DHT22;6487;48.626;12.486;2023-06-04T05:50:10;14.10;87.40
12841;DHT22;6487;48.626;12.486;2023-06-04T05:52:42;14.10;87.30
12841;DHT22;6487;48.626;12.486;2023-06-04T05:55:10;14.10;88.00
12841;DHT22;6487;48.626;12.486;2023-06-04T05:57:39;14.40;89.00
12841;DHT22;6487;48.626;12.486;2023-06-04T06:00:15;14.50;86.70
12841;DHT22;6487;48.626;12.486;2023-06-04T06:02:44;14.60;84.90
12841;DHT22;6487;48.626;12.486;2023-06-04T06:05:17;14.70;84.80
12841;DHT22;6487;48.626;12.486;2023-06-04T06:07:46;15.00;86.60
12841;DHT22;6487;48.626;12.486;2023-06-04T06:10:15;15.10;85.10
12841;DHT22;6487;48.626;12.486;2023-06-04T06:12:46;15.30;84.90
12841;DHT22;6487;48.626;12.486;2023-06-04T06:15:16;15.40;83.10
12841;DHT22;6487;48.626;12.486;2023-06-04T06:17:44;15.60;84.60
12841;DHT22;6487;48.626;12.486;2023-06-04T06:20:13;15.70;84.70
12841;DHT22;6487;48.626;12.486;2023-06-04T06:22:44;15.90;85.00
12841;DHT22;6487;48.626;12.486;2023-06-04T06:25:13;16.10;85.90
12841;DHT22;6487;48.626;12.486;2023-06-04T06:27:42;16.20;85.40
12841;DHT22;6487;48.626;12.486;2023-06-04T06:30:11;16.40;85.80
12841;DHT22;6487;48.626;12.486;2023-06-04T06:32:42;16.50;83.80
12841;DHT22;6487;48.626;12.486;2023-06-04T06:35:11;16.60;85.40
12841;DHT22;6487;48.626;12.486;2023-06-04T06:37:42;16.70;84.70
12841;DHT22;6487;48.626;12.486;2023-06-04T06:40:11;16.90;84.10
12841;DHT22;6487;48.626;12.486;2023-06-04T06:42:39;17.00;82.50
12841;DHT22;6487;48.626;12.486;2023-06-04T06:45:10;17.10;80.90
12841;DHT22;6487;48.626;12.486;2023-06-04T06:47:39;17.20;85.30
12841;DHT22;6487;48.626;12.486;2023-06-04T06:50:09;17.40;84.40
12841;DHT22;6487;48.626;12.486;2023-06-04T06:52:38;17.60;82.20
12841;DHT22;6487;48.626;12.486;2023-06-04T06:55:07;17.80;82.20
12841;DHT22;6487;48.626;12.486;2023-06-04T06:57:39;17.80;80.40
12841;DHT22;6487;48.626;12.486;2023-06-04T07:00:08;18.00;81.70
12841;DHT22;6487;48.626;12.486;2023-06-04T07:02:37;18.10;82.30
12841;DHT22;6487;48.626;12.486;2023-06-04T07:05:09;18.30;82.50
12841;DHT22;6487;48.626;12.486;2023-06-04T07:07:43;18.40;79.10
12841;DHT22;6487;48.626;12.486;2023-06-04T07:10:13;18.40;80.70
12841;DHT22;6487;48.626;12.486;2023-06-04T07:12:41;18.60;80.70
12841;DHT22;6487;48.626;12.486;2023-06-04T07:15:10;18.60;79.00
12841;DHT22;6487;48.626;12.486;2023-06-04T07:17:38;18.70;79.00
12841;DHT22;6487;48.626;12.486;2023-06-04T07:20:07;18.70;76.90
12841;DHT22;6487;48.626;12.486;2023-06-04T07:22:38;19.00;75.60
12841;DHT22;6487;48.626;12.486;2023-06-04T07:25:07;19.10;76.10
12841;DHT22;6487;48.626;12.486;2023-06-04T07:27:36;19.20;76.70
12841;DHT22;6487;48.626;12.486;2023-06-04T07:30:06;19.30;76.60
12841;DHT22;6487;48.626;12.486;2023-06-04T07:32:35;19.60;78.30
12841;DHT22;6487;48.626;12.486;2023-06-04T07:35:04;19.70;74.60
12841;DHT22;6487;48.626;12.486;2023-06-04T07:37:33;19.80;73.30
12841;DHT22;6487;48.626;12.486;2023-06-04T07:40:04;20.00;73.90
12841;DHT22;6487;48.626;12.486;2023-06-04T07:42:33;20.00;75.90
12841;DHT22;6487;48.626;12.486;2023-06-04T07:45:04;20.10;75.10
12841;DHT22;6487;48.626;12.486;2023-06-04T07:47:36;20.30;74.20
12841;DHT22;6487;48.626;12.486;2023-06-04T07:50:06;20.50;73.60
12841;DHT22;6487;48.626;12.486;2023-06-04T07:52:38;20.50;74.50
12841;DHT22;6487;48.626;12.486;2023-06-04T07:55:08;20.70;74.90
12841;DHT22;6487;48.626;12.486;2023-06-04T07:57:40;20.80;75.10
12841;DHT22;6487;48.626;12.486;2023-06-04T08:00:13;20.80;74.20
12841;DHT22;6487;48.626;12.486;2023-06-04T08:02:44;21.00;74.90
12841;DHT22;6487;48.626;12.486;2023-06-04T08:05:12;20.90;74.40
12841;DHT22;6487;48.626;12.486;2023-06-04T08:07:45;21.00;74.20
12841;DHT22;6487;48.626;12.486;2023-06-04T08:10:15;21.20;73.20
12841;DHT22;6487;48.626;12.486;2023-06-04T08:12:44;21.30;73.90
12841;DHT22;6487;48.626;12.486;2023-06-04T08:15:12;21.50;72.70
12841;DHT22;6487;48.626;12.486;2023-06-04T08:17:40;21.50;72.40
12841;DHT22;6487;48.626;12.486;2023-06-04T08:20:09;21.60;70.80
12841;DHT22;6487;48.626;12.486;2023-06-04T08:22:41;21.80;70.00
12841;DHT22;6487;48.626;12.486;2023-06-04T08:25:09;22.00;70.40
12841;DHT22;6487;48.626;12.486;2023-06-04T08:27:39;22.10;68.00
12841;DHT22;6487;48.626;12.486;2023-06-04T08:30:09;22.10;68.50
12841;DHT22;6487;48.626;12.486;2023-06-04T08:32:38;22.30;66.50
12841;DHT22;6487;48.626;12.486;2023-06-04T08:35:08;22.40;66.40
12841;DHT22;6487;48.626;12.486;2023-06-04T08:37:37;22.40;66.50
12841;DHT22;6487;48.626;12.486;2023-06-04T08:40:07;22.40;66.90
12841;DHT22;6487;48.626;12.486;2023-06-04T08:42:41;22.50;65.20
12841;DHT22;6487;48.626;12.486;2023-06-04T08:45:12;22.70;63.40
12841;DHT22;6487;48.626;12.486;2023-06-04T08:47:44;22.70;66.70
12841;DHT22;6487;48.626;12.486;2023-06-04T08:50:17;22.70;65.30
12841;DHT22;6487;48.626;12.486;2023-06-04T08:52:51;23.00;65.00
12841;DHT22;6487;48.626;12.486;2023-06-04T08:55:21;23.10;66.80
12841;DHT22;6487;48.626;12.486;2023-06-04T08:57:54;23.30;66.40
12841;DHT22;6487;48.626;12.486;2023-06-04T09:00:23;23.30;63.90
12841;DHT22;6487;48.626;12.486;2023-06-04T09:02:52;23.20;64.20
12841;DHT22;6487;48.626;12.486;2023-06-04T09:05:24;23.10;64.30
12841;DHT22;6487;48.626;12.486;2023-06-04T09:08:01;23.40;62.70
12841;DHT22;6487;48.626;12.486;2023-06-04T09:10:32;23.70;62.90
12841;DHT22;6487;48.626;12.486;2023-06-04T09:13:03;23.80;61.70
12841;DHT22;6487;48.626;12.486;2023-06-04T09:15:34;24.00;59.90
12841;DHT22;6487;48.626;12.486;2023-06-04T09:18:03;24.00;61.70
12841;DHT22;6487;48.626;12.486;2023-06-04T09:20:31;24.10;59.80
12841;DHT22;6487;48.626;12.486;2023-06-04T09:23:00;24.20;57.60
12841;DHT22;6487;48.626;12.486;2023-06-04T09:25:28;24.20;59.40
12841;DHT22;6487;48.626;12.486;2023-06-04T09:28:06;24.40;59.90
12841;DHT22;6487;48.626;12.486;2023-06-04T09:30:35;24.50;58.40
12841;DHT22;6487;48.626;12.486;2023-06-04T09:33:07;24.60;58.60
12841;DHT22;6487;48.626;12.486;2023-06-04T09:35:36;24.60;59.10
12841;DHT22;6487;48.626;12.486;2023-06-04T09:38:05;24.60;55.80
12841;DHT22;6487;48.626;12.486;2023-06-04T09:40:37;24.60;54.30
12841;DHT22;6487;48.626;12.486;2023-06-04T09:43:10;24.40;53.10
12841;DHT22;6487;48.626;12.486;2023-06-04T09:45:49;24.60;57.30
12841;DHT22;6487;48.626;12.486;2023-06-04T09:48:20;24.70;56.00
12841;DHT22;6487;48.626;12.486;2023-06-04T09:50:48;24.80;56.20
12841;DHT22;6487;48.626;12.486;2023-06-04T09:53:19;24.90;53.80
12841;DHT22;6487;48.626;12.486;2023-06-04T09:55:56;24.80;54.00
12841;DHT22;6487;48.626;12.486;2023-06-04T09:58:28;24.90;52.20
12841;DHT22;6487;48.626;12.486;2023-06-04T10:00:57;24.80;56.30
12841;DHT22;6487;48.626;12.486;2023-06-04T10:03:30;25.00;54.40
12841;DHT22;6487;48.626;12.486;2023-06-04T10:06:01;25.00;54.20
12841;DHT22;6487;48.626;12.486;2023-06-04T10:08:31;25.20;53.30
12841;DHT22;6487;48.626;12.486;2023-06-04T10:11:02;25.30;55.50
12841;DHT22;6487;48.626;12.486;2023-06-04T10:13:40;25.30;54.10
12841;DHT22;6487;48.626;12.486;2023-06-04T10:16:12;25.50;54.60
12841;DHT22;6487;48.626;12.486;2023-06-04T10:18:59;25.60;53.20
12841;DHT22;6487;48.626;12.486;2023-06-04T10:21:29;25.50;50.90
12841;DHT22;6487;48.626;12.486;2023-06-04T10:24:02;25.30;50.40
12841;DHT22;6487;48.626;12.486;2023-06-04T10:26:33;25.40;50.50
12841;DHT22;6487;48.626;12.486;2023-06-04T10:29:03;25.40;52.40
12841;DHT22;6487;48.626;12.486;2023-06-04T10:31:32;25.60;53.60
12841;DHT22;6487;48.626;12.486;2023-06-04T10:34:01;25.80;53.40
12841;DHT22;6487;48.626;12.486;2023-06-04T10:36:29;25.70;52.70
12841;DHT22;6487;48.626;12.486;2023-06-04T10:38:58;25.70;52.90
12841;DHT22;6487;48.626;12.486;2023-06-04T10:41:27;25.60;52.90
12841;DHT22;6487;48.626;12.486;2023-06-04T10:44:02;25.60;54.90
12841;DHT22;6487;48.626;12.486;2023-06-04T10:46:38;26.00;55.40
12841;DHT22;6487;48.626;12.486;2023-06-04T10:49:09;26.10;52.20
12841;DHT22;6487;48.626;12.486;2023-06-04T10:51:38;26.10;54.60
12841;DHT22;6487;48.626;12.486;2023-06-04T10:54:07;26.30;53.00
12841;DHT22;6487;48.626;12.486;2023-06-04T10:56:36;26.40;57.10
12841;DHT22;6487;48.626;12.486;2023-06-04T10:59:16;26.50;56.50
12841;DHT22;6487;48.626;12.486;2023-06-04T11:01:46;26.60;53.10
12841;DHT22;6487;48.626;12.486;2023-06-04T11:04:21;26.70;52.20
12841;DHT22;6487;48.626;12.486;2023-06-04T11:07:00;26.70;51.70
12841;DHT22;6487;48.626;12.486;2023-06-04T11:09:30;26.80;52.40
12841;DHT22;6487;48.626;12.486;2023-06-04T11:12:01;26.30;53.10
12841;DHT22;6487;48.626;12.486;2023-06-04T11:14:31;26.00;51.90
12841;DHT22;6487;48.626;12.486;2023-06-04T11:17:09;26.10;54.40
12841;DHT22;6487;48.626;12.486;2023-06-04T11:19:38;26.20;51.40
12841;DHT22;6487;48.626;12.486;2023-06-04T11:22:10;26.00;52.70
12841;DHT22;6487;48.626;12.486;2023-06-04T11:24:39;26.30;52.60
12841;DHT22;6487;48.626;12.486;2023-06-04T11:27:07;26.30;50.20
12841;DHT22;6487;48.626;12.486;2023-06-04T11:29:51;26.10;50.10
12841;DHT22;6487;48.626;12.486;2023-06-04T11:32:22;26.30;51.50
12841;DHT22;6487;48.626;12.486;2023-06-04T11:34:51;26.30;53.10
12841;DHT22;6487;48.626;12.486;2023-06-04T11:37:30;26.60;53.20
12841;DHT22;6487;48.626;12.486;2023-06-04T11:40:00;26.70;50.50
12841;DHT22;6487;48.626;12.486;2023-06-04T11:42:29;26.80;51.00
12841;DHT22;6487;48.626;12.486;2023-06-04T11:44:59;26.90;50.30
12841;DHT22;6487;48.626;12.486;2023-06-04T11:47:28;26.60;52.60
12841;DHT22;6487;48.626;12.486;2023-06-04T11:49:58;26.90;53.30
12841;DHT22;6487;48.626;12.486;2023-06-04T11:52:28;27.20;54.10
12841;DHT22;6487;48.626;12.486;2023-06-04T11:54:56;27.20;53.70
12841;DHT22;6487;48.626;12.486;2023-06-04T11:57:25;27.30;53.30
12841;DHT22;6487;48.626;12.486;2023-06-04T11:59:54;27.30;52.80
12841;DHT22;6487;48.626;12.486;2023-06-04T12:02:26;27.30;53.60
12841;DHT22;6487;48.626;12.486;2023-06-04T12:04:55;27.50;51.20
12841;DHT22;6487;48.626;12.486;2023-06-04T12:07:23;27.40;52.70
12841;DHT22;6487;48.626;12.486;2023-06-04T12:09:52;27.50;53.00
12841;DHT22;6487;48.626;12.486;2023-06-04T12:12:22;27.60;54.50
12841;DHT22;6487;48.626;12.486;2023-06-04T12:14:57;27.60;52.60
12841;DHT22;6487;48.626;12.486;2023-06-04T12:17:28;27.60;52.30
12841;DHT22;6487;48.626;12.486;2023-06-04T12:19:56;27.50;50.20
12841;DHT22;6487;48.626;12.486;2023-06-04T12:22:25;27.50;53.00
12841;DHT22;6487;48.626;12.486;2023-06-04T12:24:55;27.30;54.20
12841;DHT22;6487;48.626;12.486;2023-06-04T12:27:26;27.40;53.10
12841;DHT22;6487;48.626;12.486;2023-06-04T12:29:56;27.70;52.80
12841;DHT22;6487;48.626;12.486;2023-06-04T12:32:25;27.80;52.80
12841;DHT22;6487;48.626;12.486;2023-06-04T12:34:56;27.80;52.10
12841;DHT22;6487;48.626;12.486;2023-06-04T12:37:24;27.80;53.20
12841;DHT22;6487;48.626;12.486;2023-06-04T12:39:56;27.60;53.70
12841;DHT22;6487;48.626;12.486;2023-06-04T12:42:25;27.50;50.10
12841;DHT22;6487;48.626;12.486;2023-06-04T12:44:54;27.60;54.50
12841;DHT22;6487;48.626;12.486;2023-06-04T12:47:23;27.80;52.80
12841;DHT22;6487;48.626;12.486;2023-06-04T12:49:51;28.10;54.20
12841;DHT22;6487;48.626;12.486;2023-06-04T12:52:21;27.80;53.30
12841;DHT22;6487;48.626;12.486;2023-06-04T12:54:50;27.60;54.40
12841;DHT22;6487;48.626;12.486;2023-06-04T12:57:18;27.70;53.70
12841;DHT22;6487;48.626;12.486;2023-06-04T12:59:46;27.80;53.20
12841;DHT22;6487;48.626;12.486;2023-06-04T13:02:15;28.00;51.30
12841;DHT22;6487;48.626;12.486;2023-06-04T13:04:43;27.90;54.00
12841;DHT22;6487;48.626;12.486;2023-06-04T13:07:13;27.70;53.20
12841;DHT22;6487;48.626;12.486;2023-06-04T13:09:42;27.20;53.00
12841;DHT22;6487;48.626;12.486;2023-06-04T13:12:11;27.40;51.30
12841;DHT22;6487;48.626;12.486;2023-06-04T13:14:40;27.50;53.70
12841;DHT22;6487;48.626;12.486;2023-06-04T13:17:09;27.80;54.90
12841;DHT22;6487;48.626;12.486;2023-06-04T13:19:48;27.90;53.40
12841;DHT22;6487;48.626;12.486;2023-06-04T13:22:17;28.10;53.20
12841;DHT22;6487;48.626;12.486;2023-06-04T13:24:47;28.20;53.90
12841;DHT22;6487;48.626;12.486;2023-06-04T13:27:15;27.90;51.40
12841;DHT22;6487;48.626;12.486;2023-06-04T13:29:43;27.40;52.20
12841;DHT22;6487;48.626;12.486;2023-06-04T13:32:12;27.70;52.60
12841;DHT22;6487;48.626;12.486;2023-06-04T13:34:40;27.70;52.20
12841;DHT22;6487;48.626;12.486;2023-06-04T13:37:09;27.50;51.60
12841;DHT22;6487;48.626;12.486;2023-06-04T13:39:38;27.50;52.00
12841;DHT22;6487;48.626;12.486;2023-06-04T13:42:08;27.40;50.40
12841;DHT22;6487;48.626;12.486;2023-06-04T13:44:37;27.50;48.90
12841;DHT22;6487;48.626;12.486;2023-06-04T13:47:05;27.50;50.30
12841;DHT22;6487;48.626;12.486;2023-06-04T13:49:34;27.70;50.90
12841;DHT22;6487;48.626;12.486;2023-06-04T13:52:03;27.60;52.10
12841;DHT22;6487;48.626;12.486;2023-06-04T13:54:31;27.60;53.10
12841;DHT22;6487;48.626;12.486;2023-06-04T13:57:01;27.70;52.70
12841;DHT22;6487;48.626;12.486;2023-06-04T13:59:32;27.70;51.80
12841;DHT22;6487;48.626;12.486;2023-06-04T14:02:01;27.70;52.50
12841;DHT22;6487;48.626;12.486;2023-06-04T14:04:30;27.60;50.90
12841;DHT22;6487;48.626;12.486;2023-06-04T14:06:58;27.80;50.50
12841;DHT22;6487;48.626;12.486;2023-06-04T14:09:27;27.60;48.70
12841;DHT22;6487;48.626;12.486;2023-06-04T14:11:55;27.60;50.80
12841;DHT22;6487;48.626;12.486;2023-06-04T14:14:24;27.40;52.10
12841;DHT22;6487;48.626;12.486;2023-06-04T14:16:55;27.40;49.40
12841;DHT22;6487;48.626;12.486;2023-06-04T14:19:24;27.50;53.00
12841;DHT22;6487;48.626;12.486;2023-06-04T14:21:53;27.70;51.50
12841;DHT22;6487;48.626;12.486;2023-06-04T14:24:21;27.90;52.70
12841;DHT22;6487;48.626;12.486;2023-06-04T14:26:50;27.90;49.50
12841;DHT22;6487;48.626;12.486;2023-06-04T14:29:18;27.80;49.90
12841;DHT22;6487;48.626;12.486;2023-06-04T14:31:46;27.50;50.50
12841;DHT22;6487;48.626;12.486;2023-06-04T14:34:16;27.60;49.30
12841;DHT22;6487;48.626;12.486;2023-06-04T14:36:45;27.70;49.70
12841;DHT22;6487;48.626;12.486;2023-06-04T14:39:14;27.40;50.90
12841;DHT22;6487;48.626;12.486;2023-06-04T14:41:43;27.40;51.10
12841;DHT22;6487;48.626;12.486;2023-06-04T14:44:11;27.50;53.80
12841;DHT22;6487;48.626;12.486;2023-06-04T14:46:40;27.70;50.80
12841;DHT22;6487;48.626;12.486;2023-06-04T14:49:08;27.60;50.90
12841;DHT22;6487;48.626;12.486;2023-06-04T14:51:38;27.60;51.70
12841;DHT22;6487;48.626;12.486;2023-06-04T14:54:07;27.10;51.50
12841;DHT22;6487;48.626;12.486;2023-06-04T14:56:35;27.10;51.00
12841;DHT22;6487;48.626;12.486;2023-06-04T14:59:03;26.90;51.00
12841;DHT22;6487;48.626;12.486;2023-06-04T15:01:36;27.20;51.50
12841;DHT22;6487;48.626;12.486;2023-06-04T15:04:04;26.80;49.50
12841;DHT22;6487;48.626;12.486;2023-06-04T15:06:33;26.80;49.50
12841;DHT22;6487;48.626;12.486;2023-06-04T15:09:03;26.80;52.60
12841;DHT22;6487;48.626;12.486;2023-06-04T15:11:32;26.70;52.70
12841;DHT22;6487;48.626;12.486;2023-06-04T15:14:00;26.50;52.00
12841;DHT22;6487;48.626;12.486;2023-06-04T15:16:29;26.80;52.50
12841;DHT22;6487;48.626;12.486;2023-06-04T15:18:58;26.80;50.60
12841;DHT22;6487;48.626;12.486;2023-06-04T15:21:26;26.90;52.00
12841;DHT22;6487;48.626;12.486;2023-06-04T15:23:55;26.90;53.10
12841;DHT22;6487;48.626;12.486;2023-06-04T15:26:25;27.00;52.50
12841;DHT22;6487;48.626;12.486;2023-06-04T15:28:54;26.90;52.50
12841;DHT22;6487;48.626;12.486;2023-06-04T15:31:23;26.80;53.10
12841;DHT22;6487;48.626;12.486;2023-06-04T15:33:52;26.80;53.80
12841;DHT22;6487;48.626;12.486;2023-06-04T15:36:20;26.70;53.80
12841;DHT22;6487;48.626;12.486;2023-06-04T15:38:49;26.80;52.90
12841;DHT22;6487;48.626;12.486;2023-06-04T15:41:18;26.70;53.10
12841;DHT22;6487;48.626;12.486;2023-06-04T15:43:50;26.50;53.20
12841;DHT22;6487;48.626;12.486;2023-06-04T15:46:22;26.60;52.70